首页
METAR-TAF:

METAR-TAF

机场 :

尚贝里 / 艾克斯-就业辅导组班, 法国

纬度: 45-39N, 经度: 005-53E, 海拔: 235米

当前天气观测

该预报发布于31分钟前的08:30 UTC
风速4节,风向东转东北
温度 2°C
湿度 93%
气压 1030 hPa
能見度: 3400
阴天层高于300英尺
轻雾

METAR: LFLB 180830Z AUTO 07004KT 3400 BR OVC003 02/01 Q1030 BECMG 9999 NSW BKN040

时间: 10:01 (09:01 UTC)

预报

该预报发布于29分钟前的08:32 UTC
预报有效从18日的 08点(UTC)到 19日的 06点(UTC)
风速2节,风向多变
能見度: 3000
阴天层高于300英尺
轻雾
成为
从 18日的 11点(UTC)到 18日的 13点(UTC)
能见度10公里或以上
散云层高于1500英尺
成为
从 18日的 15点(UTC)到 18日的 18点(UTC)
风速10节,风向
能见度10公里或以上
1500米以下无云,无积雨云
成为
从 19日的 03点(UTC)到 19日的 06点(UTC)
风速12节,风向
能见度10公里或以上
多云层高于2000英尺

TAF: LFLB 180832Z 1808/1906 VRB02KT 3000 BR OVC003 BECMG 1811/1813 9999 SCT015 BECMG 1815/1818 36010KT CAVOK BECMG 1903/1906 36012KT 9999 BKN020

超过4000个机场的气象观测和天气预报(METAR&TAF报告)。

可查询的气象台以黄色和红色小点在地图上表示。

将鼠标移到小点上方,可查看气象台名称。

然后点击查看天气观测和预报。

如需切换地图:点击带黑十字的绿色按钮放大地图;点击带横线的绿色按钮缩小地图;或者点击绿色箭头查看邻近地区的地图。


METAR-TAF: